Tiempo atmosférico en la estación meteorológica de Salas, Asturias (240 m.)



Fecha
DESCASC
Temp. máxima en grados centígrados (hora)
DESCASC
Temp. mínima en grados centígrados (hora)
DESCASC
Temp. media en grados centígrados
DESCASC
Racha de viento máxima en m/sg (hora)
DESCASC
Velocidad máxima media en intervalos de 10 minutos(hora)
DESCASC
Precipitaciones diarias en mm
DESCASC
Precipitaciones de 00:00 a 06:00 en mm
DESCASC
Precipitaciones de 06:00 a 12:00 en mm
DESCASC
Precipitaciones de 12:00 a 18:00 en mm
DESCASC
Precipitaciones de 18:00 a 24:00 en mm
DESCASC

Gráficas

Temp. máximas Temp. mínimas Temp. medias Precipitaciones Rachas de viento máximas Velocidades máximas media en intervalos de 10 minutos

Datos horarios

Fecha y hora oficial Temperatura (ºC) Velocidad del viento (km/h) Dirección del viento Racha (km/h) Dirección de racha Precipitación (mm) Presión (hPa) Tendencia (hPa) Humedad (%)
2020-04-01 23:00:00 -- -- -- -- -- -- -- -- --
2020-04-01 22:00:00 10.3 5 Nordeste 14 Norte 0.2 -- -- 95
2020-04-01 21:00:00 10.9 5 Nordeste 11 Nordeste 0 -- -- 89
2020-04-01 20:00:00 11.5 9 Nordeste 15 Nordeste 0 -- -- 85
2020-04-01 19:00:00 12.3 9 Nordeste 18 Nordeste 0 -- -- 81
2020-04-01 18:00:00 12.7 11 Nordeste 23 Nordeste 0 -- -- 79
2020-04-01 17:00:00 14.3 13 Nordeste 23 Nordeste 0 -- -- 72
2020-04-01 16:00:00 14.5 10 Nordeste 16 Nordeste 0 -- -- 77
2020-04-01 15:00:00 13.3 4 Sudeste 10 Nordeste 0 -- -- 77
2020-04-01 14:00:00 12 4 Sudeste 9 Sudeste 0 -- -- 82
2020-04-01 13:00:00 11.8 5 Sudeste 10 Sudeste 0 -- -- 82
2020-04-01 12:00:00 10.4 3 Sudeste 5 Sudeste 0 -- -- 89
2020-04-01 11:00:00 8.4 2 Nordeste 6 Sur 0 -- -- 92
2020-04-01 10:00:00 6 3 Nordeste 5 Noroeste 0 -- -- 100
2020-04-01 09:00:00 4.6 0 Calma 4 Oeste 0 -- -- 100
2020-04-01 08:00:00 4.6 3 Nordeste 5 Nordeste 0 -- -- 100
2020-04-01 07:00:00 5 3 Nordeste 5 Sur 0 -- -- 99
2020-04-01 06:00:00 5.7 2 Norte 5 Noroeste 0 -- -- 99
2020-04-01 05:00:00 5.7 0 Calma 4 Sur 0 -- -- 99
2020-04-01 04:00:00 5.8 0 Calma 6 Nordeste 0 -- -- 98
2020-04-01 03:00:00 6.4 3 Norte 6 Nordeste 0 -- -- 98
2020-04-01 02:00:00 6.7 0 Calma 8 Norte 0 -- -- 97
2020-04-01 01:00:00 7 2 Nordeste 10 Norte 0 -- -- 96
2020-04-01 00:00:00 7.3 4 Norte 9 Norte 0 -- -- 93
2020-03-31 23:00:00 7.1 5 Norte 15 Nordeste 0.2 -- -- 94
2020-03-31 22:00:00 7.2 5 Norte 12 Norte 0 -- -- 92
2020-03-31 21:00:00 7.1 6 Norte 16 Norte 0 -- -- 92
2020-03-31 20:00:00 7 10 Norte 22 Nordeste 0 -- -- 92
2020-03-31 19:00:00 7.3 10 Nordeste 29 Nordeste 0 -- -- 88
2020-03-31 18:00:00 7.6 15 Nordeste 30 Nordeste 0 -- -- 81
2020-03-31 17:00:00 7.7 10 Nordeste 27 Nordeste 0 -- -- 80
2020-03-31 16:00:00 7.5 11 Este 28 Nordeste 0 -- -- 78
2020-03-31 15:00:00 7.2 15 Nordeste 33 Nordeste 0 -- -- 77
2020-03-31 14:00:00 6.7 9 Nordeste 20 Nordeste 0 -- -- 80
2020-03-31 13:00:00 6 6 Sudeste 23 Este 0 -- -- 81
2020-03-31 12:00:00 6.4 10 Este 19 Este 0 -- -- 81
2020-03-31 11:00:00 3.7 3 Sur 6 Sudoeste 0 -- -- 99
2020-03-31 10:00:00 1.9 2 Sur 4 Sur 0 -- -- 100
2020-03-31 09:00:00 1 0 Calma 10 Norte 0 -- -- 100
2020-03-31 08:00:00 1.1 4 Este 6 Nordeste 0 -- -- 100
2020-03-31 07:00:00 1.1 0 Calma 5 Sudoeste 0 -- -- 100
2020-03-31 06:00:00 0.9 0 Calma 4 Este 0 -- -- 100
2020-03-31 05:00:00 0.7 3 Oeste 7 Sudoeste 0.4 -- -- 100
2020-03-31 04:00:00 0.6 2 Sudoeste 7 Norte 1.2 -- -- 100
2020-03-31 03:00:00 1.2 3 Noroeste 9 Noroeste 1 -- -- 100
2020-03-31 02:00:00 1.1 3 Nordeste 6 Noroeste 0 -- -- 100
2020-03-31 01:00:00 1 3 Noroeste 5 Oeste 1 -- -- 99
2020-03-31 00:00:00 1 0 Calma 6 Sudoeste 0.2 -- -- 99
2020-03-30 23:00:00 1 2 Sudoeste 10 Norte 2.4 -- -- 98
2020-03-30 22:00:00 1.8 0 Calma 7 Oeste 1 -- -- 97
2020-03-30 21:00:00 2.3 3 Sudeste 22 Nordeste 1 -- -- 96
2020-03-30 20:00:00 3.1 4 Oeste -- -- -- -- -- 94
2020-03-30 19:00:00 4.6 5 Sudoeste 16 Norte 0 -- -- 82
2020-03-30 18:00:00 3.4 13 Nordeste 49 Nordeste 0 -- -- 90
2020-03-30 17:00:00 4.7 19 Nordeste 38 Nordeste 0.2 -- -- 87
2020-03-30 16:00:00 5.8 12 Nordeste 29 Norte 0 -- -- 79
2020-03-30 15:00:00 4.6 8 Norte 39 Nordeste 0.4 -- -- 89
2020-03-30 14:00:00 4.8 24 Nordeste 50 Nordeste 0 -- -- 80
2020-03-30 13:00:00 6.1 15 Nordeste 28 Nordeste 0 -- -- 73
2020-03-30 12:00:00 4.8 17 Nordeste 32 Nordeste 0 -- -- 85
2020-03-30 11:00:00 3.3 12 Nordeste 46 Nordeste 0.8 -- -- 93
2020-03-30 10:00:00 3.9 6 Este 22 Este 0 -- -- 93
2020-03-30 09:00:00 2.7 17 Norte 36 Norte 1.2 -- -- 95
2020-03-30 08:00:00 4 2 Noroeste 10 Norte 0.2 -- -- 95
2020-03-30 07:00:00 4.3 4 Este 23 Nordeste 0.2 -- -- 94
2020-03-30 06:00:00 4.5 7 Nordeste 17 Nordeste 1.2 -- -- 93
2020-03-30 05:00:00 5.3 4 Sudeste 12 Nordeste 0 -- -- 87
2020-03-30 04:00:00 5.5 8 Nordeste 23 Nordeste 0 -- -- 88
2020-03-30 03:00:00 5.6 12 Este 37 Nordeste 0.2 -- -- 90
2020-03-30 02:00:00 5.9 13 Nordeste 37 Nordeste 0.2 -- -- 91
2020-03-30 01:00:00 6.2 11 Nordeste 24 Nordeste 0.2 -- -- 93
2020-03-30 00:00:00 6.4 14 Nordeste 40 Nordeste 0 -- -- 93
2020-03-29 23:00:00 6.5 14 Nordeste 33 Norte 0.2 -- -- 95
2020-03-29 22:00:00 6.8 17 Nordeste 40 Nordeste 0 -- -- 96
2020-03-29 21:00:00 7.6 17 Nordeste 35 Nordeste 0 -- -- 95
2020-03-29 20:00:00 8.9 16 Nordeste 31 Nordeste 0 -- -- 91
2020-03-29 19:00:00 10.4 15 Nordeste 39 Nordeste 0 -- -- 85
2020-03-29 18:00:00 13.1 19 Nordeste 41 Nordeste 0 -- -- 67
2020-03-29 17:00:00 13.5 14 Nordeste 28 Nordeste 0 -- -- 60
2020-03-29 16:00:00 13.1 10 Nordeste 24 Nordeste 0 -- -- 73
2020-03-29 15:00:00 11.9 12 Nordeste 24 Este 0 -- -- 81
2020-03-29 14:00:00 11.5 15 Nordeste 25 Nordeste 0 -- -- 81
2020-03-29 13:00:00 12 7 Este 17 Sudeste 0 -- -- 70
2020-03-29 12:00:00 12.6 6 Sudeste 17 Sudeste 0 -- -- 67
2020-03-29 11:00:00 11.5 10 Sur 15 Sur 0 -- -- 79
2020-03-29 10:00:00 8.1 0 Calma 4 Sudeste 0 -- -- 93
2020-03-29 09:00:00 7.5 0 Calma 3 Sur 0 -- -- 95
2020-03-29 08:00:00 7.2 0 Calma 4 Nordeste 0 -- -- 93
2020-03-29 07:00:00 8.2 0 Calma 3 Norte 0 -- -- 93
2020-03-29 06:00:00 8.3 0 Calma 5 Norte 0 -- -- 90
2020-03-29 05:00:00 9.3 0 Calma 6 Nordeste 0 -- -- 90
2020-03-29 03:00:00 9.6 0 Calma 6 Norte 0 -- -- 91
2020-03-29 01:00:00 9.7 4 Norte 8 Noroeste 0 -- -- 89
2020-03-29 00:00:00 9.8 2 Noroeste 8 Norte 0 -- -- 89
2020-03-28 23:00:00 9.9 4 Norte 7 Norte 0 -- -- 88
2020-03-28 22:00:00 10 4 Norte 10 Norte 0 -- -- 88
2020-03-28 21:00:00 10 5 Norte 9 Norte 0 -- -- 87
2020-03-28 20:00:00 10 5 Norte 14 Nordeste 0 -- -- 86
2020-03-28 19:00:00 10.8 8 Norte 17 Norte 0 -- -- 84
2020-03-28 18:00:00 12.2 10 Norte 20 Norte 0 -- -- 78
2020-03-28 17:00:00 13.9 12 Nordeste 26 Nordeste 0 -- -- 73
2020-03-28 16:00:00 15.6 16 Nordeste 28 Este 0 -- -- 67
2020-03-28 15:00:00 16.6 15 Nordeste 25 Este 0 -- -- 61
2020-03-28 14:00:00 16.6 11 Este 18 Nordeste 0 -- -- 56
2020-03-28 13:00:00 15.6 8 Nordeste 15 Este 0 -- -- 60
2020-03-28 12:00:00 14.3 10 Nordeste 18 Este 0 -- -- 65
2020-03-28 11:00:00 12.2 6 Sudeste 10 Este 0 -- -- 66
2020-03-28 10:00:00 8.3 3 Sur 5 Sudoeste 0 -- -- 77
2020-03-28 09:00:00 4.7 3 Sudoeste 5 Sudoeste 0 -- -- 89
2020-03-28 08:00:00 2.5 3 Oeste 6 Noroeste 0 -- -- 96
2020-03-28 07:00:00 2.4 2 Oeste 5 Oeste 0 -- -- 96
2020-03-28 06:00:00 2.7 3 Oeste 6 Oeste 0 -- -- 96
2020-03-28 05:00:00 2.9 0 Calma 9 Sudoeste 0 -- -- 96
2020-03-28 04:00:00 3.1 4 Sudoeste 7 Oeste 0 -- -- 98
2020-03-28 03:00:00 3.5 0 Calma 4 Oeste 0 -- -- 95
2020-03-28 02:00:00 3.6 0 Calma 3 Noroeste 0 -- -- 95
2020-03-28 01:00:00 4.2 0 Calma 8 Oeste 0 -- -- 93
2020-03-28 00:00:00 4.4 2 Norte 4 Nordeste 0 -- -- 92
2020-03-27 23:00:00 5.2 0 Calma 2 Noroeste 0 -- -- 89
2020-03-27 22:00:00 6.2 0 Calma 9 Noroeste 0 -- -- 85
2020-03-27 21:00:00 7.6 3 Noroeste 19 Norte 0 -- -- 80
2020-03-27 20:00:00 8.4 8 Norte 16 Nordeste 0 -- -- 79
2020-03-27 19:00:00 9.6 12 Nordeste 27 Nordeste 0 -- -- 73
2020-03-27 18:00:00 11.3 17 Nordeste 29 Nordeste 0 -- -- 65
2020-03-27 17:00:00 12.6 15 Nordeste 31 Nordeste 0 -- -- 61
2020-03-27 16:00:00 13.6 14 Nordeste 30 Nordeste 0 -- -- 57
2020-03-27 15:00:00 13.1 17 Nordeste 32 Nordeste 0 -- -- 61
2020-03-27 14:00:00 13.2 14 Nordeste 33 Nordeste 0 -- -- 59
2020-03-27 13:00:00 13.4 15 Nordeste 26 Nordeste 0 -- -- 54
2020-03-27 12:00:00 12.4 9 Este 29 Nordeste 0 -- -- 48
2020-03-27 11:00:00 10.9 12 Este 22 Este 0 -- -- 56
2020-03-27 10:00:00 8.4 4 Nordeste 12 Este 0 -- -- 71
2020-03-27 09:00:00 4 2 Sur 4 Sudeste 0 -- -- 92
2020-03-27 08:00:00 1.4 0 Calma 5 Este 0 -- -- 95
2020-03-27 07:00:00 1.1 0 Calma 6 Oeste 0 -- -- 94
2020-03-27 06:00:00 1.6 0 Calma 3 Sudoeste 0 -- -- 91
2020-03-27 05:00:00 2.3 2 Sudoeste 4 Sudoeste 0 -- -- 90
2020-03-27 04:00:00 3.3 0 Calma 4 Oeste 0 -- -- 86
2020-03-27 03:00:00 4.5 0 Calma 7 Nordeste 0 -- -- 81
2020-03-27 02:00:00 6 5 Nordeste 9 Nordeste 0 -- -- 78
2020-03-27 01:00:00 6.7 6 Norte 11 Nordeste 0 -- -- 77
2020-03-27 00:00:00 7.2 8 Norte 17 Nordeste 0 -- -- 76
2020-03-26 23:00:00 7.5 10 Norte 22 Norte 0 -- -- 79
2020-03-26 22:00:00 6.5 3 Nordeste 10 Norte 0 -- -- 86
2020-03-26 21:00:00 6 0 Calma 5 Norte 0 -- -- 85
2020-03-26 20:00:00 7.2 2 Oeste 14 Norte 0 -- -- 77
2020-03-26 19:00:00 8.8 11 Nordeste 17 Nordeste 0 -- -- 67
2020-03-26 18:00:00 11.5 10 Nordeste 22 Nordeste 0 -- -- 54
2020-03-26 17:00:00 12 12 Nordeste 27 Nordeste 0 -- -- 57
2020-03-26 16:00:00 12.8 14 Nordeste 26 Nordeste 0 -- -- 59
2020-03-26 15:00:00 11.7 14 Nordeste 24 Nordeste 0 -- -- 63
2020-03-26 14:00:00 13.5 12 Este 21 Norte 0 -- -- 60
2020-03-26 13:00:00 11 8 Norte 20 Nordeste 0 -- -- 63
2020-03-26 12:00:00 10.4 10 Nordeste 21 Nordeste 0 -- -- 67
2020-03-26 11:00:00 9.2 3 Sudeste 6 Sudeste 0 -- -- 73
2020-03-26 10:00:00 9.1 3 Sudeste 8 Sudoeste 0 -- -- 77
2020-03-26 09:00:00 5.9 2 Sur 4 Sudeste 0 -- -- 90
2020-03-26 08:00:00 4 0 Calma 4 Nordeste 0 -- -- 96
2020-03-26 07:00:00 4.2 2 Este 7 Sudoeste 0 -- -- 97
2020-03-26 06:00:00 4.4 2 Sudoeste 4 Sur 0 -- -- 99
2020-03-26 05:00:00 4.6 0 Calma 3 Este 0 -- -- 97
2020-03-26 04:00:00 5.6 0 Calma 5 Oeste 0 -- -- 96
2020-03-26 03:00:00 6 5 Noroeste 8 Oeste 0 -- -- 96
2020-03-26 02:00:00 6.2 0 Calma 3 Sur 0 -- -- 97
2020-03-26 01:00:00 6.4 0 Calma 3 Este 0 -- -- 95
2020-03-26 00:00:00 7.4 3 Oeste 6 Oeste 0 -- -- 93
2020-03-25 23:00:00 7.6 4 Norte 8 Nordeste 0 -- -- 97
2020-03-25 22:00:00 7.6 0 Calma 3 Este 0 -- -- 93
2020-03-25 21:00:00 8.7 0 Calma 5 Norte 0 -- -- 89
2020-03-25 20:00:00 10.3 3 Norte 13 Norte 0 -- -- 82
2020-03-25 19:00:00 11.9 9 Norte 16 Nordeste 0 -- -- 81
2020-03-25 18:00:00 15 10 Nordeste 19 Este 0 -- -- 61
2020-03-25 17:00:00 15.8 12 Nordeste 24 Nordeste 0 -- -- 56
2020-03-25 16:00:00 15.8 18 Nordeste 28 Nordeste 0 -- -- 65
2020-03-25 15:00:00 18.6 16 Este 26 Nordeste 0 -- -- 53
2020-03-25 14:00:00 19.3 7 Este 17 Nordeste 0 -- -- 52
2020-03-25 13:00:00 18.2 9 Nordeste 17 Nordeste 0 -- -- 54
2020-03-25 12:00:00 17.7 7 Este 13 Nordeste 0 -- -- 61
2020-03-25 11:00:00 15.3 5 Sudeste 8 Sudeste 0 -- -- 71
2020-03-25 10:00:00 11.9 3 Sur 5 Sur 0 -- -- 83
2020-03-25 09:00:00 8.9 3 Sudoeste 6 Oeste 0 -- -- 94
2020-03-25 08:00:00 6.9 0 Calma 5 Noroeste 0 -- -- 97
2020-03-25 07:00:00 7.1 3 Noroeste 5 Sudoeste 0 -- -- 97
2020-03-25 06:00:00 7.1 0 Calma 4 Oeste 0 -- -- 96
2020-03-25 05:00:00 7.1 0 Calma 4 Oeste 0 -- -- 96
2020-03-25 04:00:00 7.6 2 Oeste 5 Oeste 0 -- -- 96
2020-03-25 03:00:00 7.8 0 Calma 3 Noroeste 0 -- -- 96
2020-03-25 02:00:00 8 0 Calma 3 Nordeste 0 -- -- 95
2020-03-25 01:00:00 8.5 0 Calma 5 Oeste 0 -- -- 93
2020-03-25 00:00:00 8.8 0 Calma 3 Este 0 -- -- 92
2020-03-24 23:00:00 9.7 0 Calma 5 Nordeste 0 -- -- 89
2020-03-24 22:00:00 10.3 0 Calma 5 Nordeste 0 -- -- 87
2020-03-24 21:00:00 11.3 0 Calma 5 Este 0 -- -- 83
2020-03-24 20:00:00 12.8 2 Nordeste 14 Norte 0 -- -- 76
2020-03-24 19:00:00 14.6 5 Norte 14 Norte 0 -- -- 71
2020-03-24 18:00:00 16.6 9 Norte 24 Nordeste 0 -- -- 63
2020-03-24 17:00:00 17.7 12 Nordeste 31 Este 0 -- -- 64
2020-03-24 16:00:00 18.8 15 Nordeste 30 Nordeste 0 -- -- 59
2020-03-24 15:00:00 19.5 12 Nordeste 22 Nordeste 0 -- -- 62
2020-03-24 14:00:00 18.8 12 Norte 21 Nordeste 0 -- -- 68
2020-03-24 13:00:00 17.9 9 Nordeste 15 Nordeste 0 -- -- 70
2020-03-24 12:00:00 15.1 3 Nordeste 14 Sudoeste 0 -- -- 73
2020-03-24 11:00:00 12.4 4 Oeste 13 Este 0 -- -- 84
2020-03-24 10:00:00 10.8 4 Este 9 Nordeste 0 -- -- 91
2020-03-24 09:00:00 9.8 2 Este 5 Nordeste 0 -- -- 98
2020-03-24 08:00:00 9.2 0 Calma 3 Sudoeste 0 -- -- 98
2020-03-24 07:00:00 8.8 2 Norte 6 Este 0 -- -- 95
2020-03-24 06:00:00 10.2 0 Calma 8 Este 0 -- -- 93
2020-03-24 05:00:00 10.4 0 Calma 9 Sudeste 0 -- -- 93
2020-03-24 04:00:00 10.5 4 Este 14 Este 0 -- -- 92
2020-03-24 03:00:00 10.7 6 Este 13 Este 0 -- -- 91
2020-03-24 02:00:00 10.8 2 Este 7 Nordeste 0 -- -- 90
2020-03-24 01:00:00 10.8 3 Este 10 Nordeste 0 -- -- 89
2020-03-24 00:00:00 10.8 6 Este 18 Nordeste 0 -- -- 89
2020-03-23 23:00:00 10.7 8 Nordeste 14 Norte 0 -- -- 91
2020-03-23 22:00:00 10.4 8 Norte 17 Nordeste 0 -- -- 93
2020-03-23 21:00:00 10.4 13 Norte 20 Nordeste 0 -- -- 93
2020-03-23 20:00:00 10.5 11 Nordeste 19 Nordeste 0 -- -- 92
2020-03-23 19:00:00 10.9 9 Nordeste 16 Nordeste 0 -- -- 91
2020-03-23 18:00:00 11.2 12 Norte 20 Nordeste 0 -- -- 89
2020-03-23 17:00:00 11.7 9 Nordeste 18 Nordeste 0 -- -- 89
2020-03-23 16:00:00 12.2 8 Norte 18 Nordeste 0 -- -- 87
2020-03-23 15:00:00 12.6 10 Nordeste 21 Nordeste 0 -- -- 85
2020-03-23 14:00:00 13.3 15 Nordeste 24 Nordeste 0 -- -- 83
2020-03-23 13:00:00 13.2 10 Nordeste 16 Norte 0 -- -- 81
2020-03-23 12:00:00 12.4 6 Nordeste 12 Nordeste 0 -- -- 85
2020-03-23 11:00:00 11.6 5 Nordeste 9 Nordeste 0 -- -- 90
2020-03-23 10:00:00 10.8 4 Nordeste 8 Nordeste 0 -- -- 94
2020-03-23 09:00:00 10.3 4 Nordeste 8 Nordeste 0 -- -- 96
2020-03-23 08:00:00 10 3 Norte 10 Norte 0 -- -- 97
2020-03-23 07:00:00 10.1 3 Nordeste 8 Nordeste 0 -- -- 97
2020-03-23 06:00:00 10.1 2 Norte 7 Norte 0 -- -- 95
2020-03-23 05:00:00 10.1 3 Norte 9 Nordeste 0 -- -- 96
2020-03-23 04:00:00 10.1 6 Norte 10 Nordeste 0 -- -- 97
2020-03-23 03:00:00 10.3 4 Norte 13 Noroeste 0 -- -- 96
2020-03-23 02:00:00 10.3 6 Norte 16 Nordeste 0 -- -- 95
2020-03-23 01:00:00 10.4 8 Nordeste 15 Nordeste 0 -- -- 96
2020-03-23 00:00:00 10.7 7 Norte 13 Norte 0 -- -- 94
2020-03-22 23:00:00 10.9 8 Nordeste 15 Nordeste 0 -- -- 94
2020-03-22 22:00:00 11 9 Norte 16 Nordeste 0 -- -- 93
2020-03-22 21:00:00 11.2 7 Nordeste 14 Nordeste 0 -- -- 92
2020-03-22 20:00:00 11.5 7 Nordeste 12 Nordeste 0 -- -- 92
2020-03-22 19:00:00 11.9 6 Norte 14 Nordeste 0 -- -- 88
2020-03-22 18:00:00 12 12 Nordeste 20 Nordeste 0 -- -- 87
2020-03-22 17:00:00 12.8 14 Nordeste 22 Nordeste 0 -- -- 85
2020-03-22 16:00:00 13.8 13 Nordeste 23 Nordeste 0 -- -- 81
2020-03-22 15:00:00 13.8 14 Nordeste 22 Nordeste 0 -- -- 82
2020-03-22 14:00:00 15.2 5 Este 10 Sur 0 -- -- 75
2020-03-22 13:00:00 14.3 3 Este 9 Nordeste 0 -- -- 76
2020-03-22 12:00:00 13.1 3 Sudeste 8 Sur 0 -- -- 82
2020-03-22 11:00:00 11.6 2 Sudeste 4 Este 0 -- -- 91
2020-03-22 10:00:00 11.1 2 Sudeste 6 Sudeste 0.2 -- -- 95
2020-03-22 09:00:00 10.5 2 Sur 4 Nordeste 0.2 -- -- 98
2020-03-22 08:00:00 10.1 0 Calma 4 Este 0 -- -- 98
2020-03-22 07:00:00 10.1 2 Oeste 3 Nordeste 0 -- -- 98
2020-03-22 06:00:00 10.1 3 Nordeste 5 Nordeste 0 -- -- 98
2020-03-22 05:00:00 10.1 4 Norte 7 Norte 0 -- -- 94
2020-03-22 04:00:00 10.1 5 Nordeste 6 Nordeste 0 -- -- 97
2020-03-22 03:00:00 10.5 0 Calma 8 Oeste 0 -- -- 97
2020-03-22 02:00:00 10.4 0 Calma 5 Noroeste 0 -- -- 96
2020-03-22 01:00:00 10.5 2 Este 6 Sudeste 0 -- -- 98
2020-03-22 00:00:00 10.5 3 Este 8 Norte 0 -- -- 97
2020-03-21 23:00:00 10.4 4 Norte 12 Nordeste 0 -- -- 97
2020-03-21 22:00:00 10.6 6 Norte 12 Norte 0 -- -- 97
2020-03-21 21:00:00 11.4 4 Norte 8 Nordeste 0 -- -- 95
2020-03-21 20:00:00 11.7 3 Este 10 Sudeste 0 -- -- 93
2020-03-21 19:00:00 12.1 5 Nordeste 13 Nordeste 0 -- -- 93
2020-03-21 18:00:00 12.4 10 Nordeste 16 Nordeste 0 -- -- 92
2020-03-21 17:00:00 13.7 8 Nordeste 21 Norte 0 -- -- 88
2020-03-21 16:00:00 15.6 13 Norte 19 Norte 0 -- -- 83
2020-03-21 15:00:00 17.3 12 Norte 18 Nordeste 0 -- -- 79
2020-03-21 14:00:00 17.8 7 Nordeste 18 Nordeste 0 -- -- 77
2020-03-21 13:00:00 16 13 Nordeste 18 Norte 0 -- -- 83
2020-03-21 12:00:00 15.1 14 Nordeste 19 Nordeste 0 -- -- 87
2020-03-21 11:00:00 13.3 5 Nordeste 13 Nordeste 0 -- -- 91
2020-03-21 10:00:00 11.2 3 Este 7 Sudoeste 0 -- -- 98
2020-03-21 09:00:00 9.7 3 Sur 10 Oeste 0 -- -- 100
2020-03-21 08:00:00 9.3 4 Oeste 10 Noroeste 0 -- -- 100
2020-03-21 07:00:00 9.6 2 Oeste 6 Oeste 0 -- -- 100
2020-03-21 06:00:00 9.7 4 Noroeste 8 Noroeste 0 -- -- 100
2020-03-21 05:00:00 9.9 2 Oeste 5 Oeste 0 -- -- 100
2020-03-21 04:00:00 10.2 0 Calma 6 Noroeste 0 -- -- 100
2020-03-21 03:00:00 10.3 4 Nordeste 6 Sudoeste 0 -- -- 100
2020-03-21 02:00:00 10.4 3 Norte 5 Norte 0 -- -- 100
2020-03-21 01:00:00 10.4 0 Calma 3 Este 0 -- -- 99
2020-03-21 00:00:00 10.7 3 Este 7 Nordeste 0 -- -- 98
2020-03-20 23:00:00 11.1 0 Calma 5 Nordeste 0 -- -- 97
2020-03-20 22:00:00 11.6 0 Calma 4 Noroeste 0 -- -- 96
2020-03-20 21:00:00 11.8 0 Calma 4 Noroeste 0 -- -- 96
2020-03-20 20:00:00 12.5 0 Calma 9 Norte 0 -- -- 92
2020-03-20 19:00:00 13.8 5 Norte 13 Norte 0 -- -- 88
2020-03-20 18:00:00 15 5 Norte 13 Norte 0 -- -- 85
2020-03-20 17:00:00 15 8 Norte 14 Norte 0 -- -- 85
2020-03-20 16:00:00 15.2 4 Este 8 Nordeste 0 -- -- 90
2020-03-20 15:00:00 14.1 3 Este 6 Nordeste 0 -- -- 92
2020-03-20 14:00:00 13 2 Sur 8 Este 0 -- -- 95
2020-03-20 13:00:00 12.4 3 Nordeste 10 Norte 0.4 -- -- 97
2020-03-20 12:00:00 12.7 4 Nordeste 7 Nordeste 0.2 -- -- 94
2020-03-20 11:00:00 11.9 3 Este 5 Este 0 -- -- 96
2020-03-20 10:00:00 10.5 2 Sudeste 6 Oeste 0 -- -- 99
2020-03-20 09:00:00 10.1 0 Calma 10 Noroeste 0 -- -- 100
2020-03-20 08:00:00 9.9 8 Sudoeste 12 Oeste 0 -- -- 100
2020-03-20 07:00:00 9.9 4 Sudoeste 6 Sudoeste 0.2 -- -- 100
2020-03-20 06:00:00 10 3 Noroeste 6 Nordeste 0 -- -- 100
2020-03-20 05:00:00 10.1 2 Norte 7 Nordeste 0 -- -- 100
2020-03-20 04:00:00 10.3 2 Nordeste 4 Nordeste 0 -- -- 100
2020-03-20 03:00:00 10.4 0 Calma 5 Nordeste 0 -- -- 100
2020-03-20 02:00:00 10.5 2 Este 4 Este 0 -- -- 100
2020-03-20 01:00:00 10.5 0 Calma 5 Nordeste 0 -- -- 100
2020-03-20 00:00:00 10.7 3 Este 9 Norte 0 -- -- 99
2020-03-19 23:00:00 10.9 2 Nordeste 10 Norte 0 -- -- 98
2020-03-19 22:00:00 11.2 5 Nordeste 14 Nordeste 0 -- -- 97
2020-03-19 21:00:00 11.5 10 Nordeste 19 Norte 0 -- -- 96
2020-03-19 20:00:00 13.5 3 Este 12 Este 0 -- -- 92
2020-03-19 19:00:00 14.5 2 Noroeste 4 Este 0 -- -- 88
2020-03-19 18:00:00 15.7 0 Calma 6 Sudeste 0 -- -- 85
2020-03-19 17:00:00 15.8 5 Nordeste 13 Norte 0 -- -- 84
2020-03-19 16:00:00 16.8 9 Norte 16 Norte 0 -- -- 82
2020-03-19 15:00:00 17.5 12 Nordeste 17 Norte 0 -- -- 80
2020-03-19 14:00:00 17.7 5 Norte 13 Nordeste 0 -- -- 79
2020-03-19 13:00:00 15.3 6 Sudeste 10 Sudeste 0 -- -- 82
2020-03-19 12:00:00 11.6 4 Sur 8 Sudeste 0 -- -- 94
2020-03-19 11:00:00 9.9 0 Calma 4 Sur 0 -- -- 99
2020-03-19 10:00:00 9.2 2 Sudoeste 5 Sur 0 -- -- 100
2020-03-19 09:00:00 8.9 2 Oeste 5 Oeste 0 -- -- 100
2020-03-19 08:00:00 8.8 4 Oeste 7 Noroeste 0 -- -- 100
2020-03-19 07:00:00 8.9 0 Calma 5 Oeste 0 -- -- 100
2020-03-19 06:00:00 9.1 0 Calma 6 Oeste 0 -- -- 100
2020-03-19 05:00:00 9.2 2 Sudoeste 6 Oeste 0.2 -- -- 100
2020-03-19 04:00:00 9.4 2 Sudoeste 5 Sudoeste 0 -- -- 100
2020-03-19 03:00:00 9.6 0 Calma 5 Nordeste 0 -- -- 100
2020-03-19 02:00:00 9.8 2 Este 4 Este 0 -- -- 100
2020-03-19 01:00:00 9.9 2 Este 4 Sudeste 0 -- -- 100
2020-03-19 00:00:00 9.9 0 Calma 3 Sudeste 0 -- -- 100
2020-03-18 23:00:00 9.4 0 Calma 2 Nordeste 0 -- -- 98
2020-03-18 22:00:00 9.9 0 Calma 2 Sur 0 -- -- 97
2020-03-18 21:00:00 10.5 0 Calma 5 Oeste 0 -- -- 96
2020-03-18 20:00:00 11.5 4 Nordeste 7 Este 0 -- -- 92
2020-03-18 19:00:00 13.6 2 Sudoeste 13 Norte 0 -- -- 88
2020-03-18 18:00:00 14.5 11 Norte 18 Norte 0 -- -- 84
2020-03-18 17:00:00 15.8 12 Nordeste 22 Norte 0 -- -- 79
2020-03-18 16:00:00 17.3 13 Nordeste 21 Nordeste 0 -- -- 77
2020-03-18 15:00:00 18.7 14 Norte 19 Norte 0 -- -- 69
2020-03-18 14:00:00 19.5 12 Nordeste 17 Nordeste 0 -- -- 65
2020-03-18 13:00:00 19 4 Sudeste 9 Sudeste 0 -- -- 62
2020-03-18 12:00:00 15.9 3 Sur 7 Sudeste 0 -- -- 67
2020-03-18 11:00:00 12.4 2 Sudoeste 6 Sudoeste 0 -- -- 81
2020-03-18 10:00:00 8.8 3 Sudeste 6 Sudeste 0 -- -- 96
2020-03-18 09:00:00 7.1 3 Sudeste 8 Sur 0 -- -- 100
2020-03-18 08:00:00 7 5 Sudoeste 9 Sudoeste 0 -- -- 99
2020-03-18 07:00:00 7.4 5 Sudoeste 10 Sudoeste 0 -- -- 99
2020-03-18 06:00:00 8 5 Sudoeste 9 Sudoeste 0 -- -- 98
2020-03-18 05:00:00 8.7 6 Sur 9 Sur 0 -- -- 96
2020-03-18 04:00:00 9.1 3 Sudoeste 6 Sudoeste 0 -- -- 96
2020-03-18 03:00:00 9.2 3 Oeste 4 Oeste 0 -- -- 96
2020-03-18 02:00:00 9.2 0 Calma 4 Oeste 0 -- -- 97
2020-03-18 01:00:00 9.3 0 Calma 3 Sudoeste 0 -- -- 96
2020-03-18 00:00:00 9.9 0 Calma 4 Norte 0 -- -- 95
2020-03-17 23:00:00 10.1 0 Calma 6 Este 0 -- -- 93
2020-03-17 22:00:00 10.4 3 Sudeste 6 Sudeste 0 -- -- 92
2020-03-17 21:00:00 10.5 0 Calma 5 Nordeste 0 -- -- 91
2020-03-17 20:00:00 10.6 3 Nordeste 6 Norte 0 -- -- 91
2020-03-17 19:00:00 10.8 5 Nordeste 13 Nordeste 0 -- -- 90
2020-03-17 18:00:00 11 8 Nordeste 13 Nordeste 0 -- -- 88
2020-03-17 17:00:00 11.5 6 Norte 17 Nordeste 0 -- -- 86
2020-03-17 16:00:00 11.4 11 Nordeste 21 Nordeste 0 -- -- 85
2020-03-17 15:00:00 11.9 12 Nordeste 19 Norte 0 -- -- 82
2020-03-17 14:00:00 12.1 10 Nordeste 17 Norte 0 -- -- 80
2020-03-17 13:00:00 12.1 9 Nordeste 22 Nordeste 0 -- -- 79
2020-03-17 12:00:00 12 10 Nordeste 17 Este 0 -- -- 77
2020-03-17 11:00:00 10.7 8 Nordeste 15 Nordeste 0 -- -- 79
2020-03-17 10:00:00 8.2 0 Calma 5 Norte 0 -- -- 89
2020-03-17 09:00:00 7 3 Norte 5 Este 0 -- -- 98
2020-03-17 08:00:00 6.1 2 Oeste 4 Este 0 -- -- 98
2020-03-17 07:00:00 5.8 2 Sudoeste 4 Sudoeste 0 -- -- 98
2020-03-17 06:00:00 5.4 0 Calma 5 Nordeste 0 -- -- 99
2020-03-17 05:00:00 5.1 2 Sudoeste 3 Oeste 0 -- -- 98
2020-03-17 04:00:00 4.8 0 Calma 4 Sur 0 -- -- 96
2020-03-17 03:00:00 4.9 0 Calma 3 Norte 0 -- -- 97
2020-03-17 02:00:00 4.6 0 Calma 3 Oeste 0 -- -- 95
2020-03-17 01:00:00 4.7 0 Calma 8 Norte 0 -- -- 95
2020-03-17 00:00:00 5.2 0 Calma 6 Sudoeste 0 -- -- 93
2020-03-16 23:00:00 6.1 2 Oeste 13 Norte 0 -- -- 92
2020-03-16 22:00:00 6.4 0 Calma 8 Noroeste 0 -- -- 89
2020-03-16 21:00:00 7.1 4 Noroeste 13 Norte 0 -- -- 84
2020-03-16 20:00:00 6.7 6 Norte 14 Norte 0 -- -- 83
2020-03-16 19:00:00 7.9 10 Nordeste 23 Nordeste 0 -- -- 78
2020-03-16 18:00:00 9.5 14 Nordeste 28 Nordeste 0 -- -- 79
2020-03-16 17:00:00 10.9 16 Nordeste 30 Norte 0 -- -- 71
2020-03-16 16:00:00 11 19 Nordeste 32 Nordeste 0 -- -- 66
2020-03-16 15:00:00 10.2 15 Nordeste 29 Norte 0 -- -- 76
2020-03-16 14:00:00 9.3 11 Nordeste 23 Nordeste 0.8 -- -- 86
2020-03-16 13:00:00 10 9 Nordeste 23 Nordeste 0.2 -- -- 86
2020-03-16 12:00:00 9.1 10 Nordeste 29 Este 1.2 -- -- 94
2020-03-16 11:00:00 8.3 10 Nordeste 25 Este 0.2 -- -- 92
2020-03-16 10:00:00 6.9 4 Este 11 Noroeste 0.8 -- -- 95
2020-03-16 09:00:00 5 0 Calma 8 Nordeste 0 -- -- 100
2020-03-16 08:00:00 4.3 3 Oeste 8 Oeste 0.2 -- -- 98
2020-03-16 07:00:00 3.8 3 Nordeste 9 Nordeste 0.4 -- -- 99
2020-03-16 06:00:00 3.9 3 Sudoeste 8 Sudoeste 0 -- -- 98
2020-03-16 05:00:00 4 5 Sudoeste 10 Sudoeste 0 -- -- 98
2020-03-16 04:00:00 4 2 Noroeste 10 Nordeste 0.8 -- -- 99
2020-03-16 03:00:00 4 5 Noroeste 13 Noroeste 0.6 -- -- 98
2020-03-16 02:00:00 3.8 2 Oeste 5 Oeste 0 -- -- 98
2020-03-16 01:00:00 3.8 3 Oeste 8 Sur 0 -- -- 97
2020-03-16 00:00:00 4 6 Sudoeste 10 Sudoeste 0.4 -- -- 98
2020-03-15 23:00:00 4.1 3 Noroeste 8 Nordeste 1 -- -- 97
2020-03-15 22:00:00 4 2 Noroeste 22 Sudoeste 0 -- -- 95
2020-03-15 21:00:00 3.9 4 Sudoeste 23 Sudoeste 0.6 -- -- 94
2020-03-15 20:00:00 4.2 6 Oeste 17 Sudoeste 1.2 -- -- 95
2020-03-15 19:00:00 4.5 6 Sudoeste 15 Oeste 1.4 -- -- 93
2020-03-15 18:00:00 4.8 6 Oeste 22 Sudoeste 1.4 -- -- 88
2020-03-15 17:00:00 6.8 5 Oeste 24 Nordeste 0.2 -- -- 84
2020-03-15 16:00:00 9.1 9 Nordeste 24 Norte 0 -- -- 83
2020-03-15 15:00:00 11.8 11 Oeste 39 Oeste 0 -- -- 71
2020-03-15 14:00:00 13.4 16 Oeste 43 Noroeste 0 -- -- 73
2020-03-15 13:00:00 16.8 14 Oeste 44 Sur 0 -- -- 44
2020-03-15 12:00:00 14.2 6 Sur 10 Sur 0 -- -- 74
2020-03-15 11:00:00 12 5 Sur 8 Sudeste 0 -- -- 80
2020-03-15 10:00:00 8.4 3 Sudoeste 6 Oeste 0 -- -- 89
2020-03-15 09:00:00 4.9 4 Oeste 7 Oeste 0 -- -- 100
2020-03-15 08:00:00 3.6 0 Calma 5 Oeste 0 -- -- 100
2020-03-15 07:00:00 3.5 2 Sudoeste 4 Oeste 0 -- -- 99
2020-03-15 06:00:00 3.6 0 Calma 6 Oeste 0 -- -- 98
2020-03-15 05:00:00 4.4 0 Calma 4 Este 0 -- -- 99
2020-03-15 04:00:00 4.8 2 Oeste 4 Noroeste 0 -- -- 98
2020-03-15 03:00:00 5 0 Calma 2 Noroeste 0 -- -- 99
2020-03-15 02:00:00 5.2 0 Calma 3 Oeste 0 -- -- 98
2020-03-15 01:00:00 5.6 0 Calma 3 Sur 0 -- -- 97
2020-03-15 00:00:00 5.9 0 Calma 3 Oeste 0 -- -- 96
2020-03-14 23:00:00 6.5 0 Calma 3 Sudeste 0 -- -- 93
2020-03-14 22:00:00 7.1 0 Calma 2 Nordeste 0 -- -- 91
2020-03-14 21:00:00 8.3 3 Norte 6 Noroeste 0 -- -- 87
2020-03-14 20:00:00 9.6 0 Calma 13 Norte 0 -- -- 81
2020-03-14 19:00:00 10.8 9 Norte 12 Norte 0 -- -- 77
2020-03-14 18:00:00 13.1 9 Nordeste 19 Nordeste 0 -- -- 71
2020-03-14 17:00:00 14.7 11 Nordeste 25 Nordeste 0 -- -- 64
2020-03-14 16:00:00 16 14 Nordeste 21 Nordeste 0 -- -- 61
2020-03-14 15:00:00 17 5 Este 18 Nordeste 0 -- -- 60
2020-03-14 14:00:00 16.2 7 Nordeste 12 Nordeste 0 -- -- 61
2020-03-14 13:00:00 15.4 5 Sudeste 11 Sur 0 -- -- 59
2020-03-14 12:00:00 14.4 4 Este 11 Sur 0 -- -- 69
2020-03-14 11:00:00 12.2 5 Sur 12 Sudoeste 0 -- -- 73
2020-03-14 10:00:00 9.9 4 Sur 8 Sur 0 -- -- 78
2020-03-14 09:00:00 6.7 3 Oeste 6 Noroeste 0 -- -- 89
2020-03-14 08:00:00 5 2 Este 5 Nordeste 0 -- -- 93
2020-03-14 07:00:00 5.9 2 Oeste 5 Oeste 0 -- -- 93
2020-03-14 06:00:00 6.5 0 Calma 4 Norte 0 -- -- 95
2020-03-14 05:00:00 6.6 0 Calma 6 Oeste 0 -- -- 92
2020-03-14 04:00:00 6.5 3 Noroeste 5 Noroeste 0 -- -- 97
2020-03-14 03:00:00 6.8 3 Oeste 6 Oeste 0 -- -- 98
2020-03-14 02:00:00 6.5 0 Calma 4 Nordeste 0 -- -- 99
2020-03-14 01:00:00 6.7 0 Calma 5 Noroeste 0 -- -- 97
2020-03-14 00:00:00 7.5 0 Calma 6 Oeste 0 -- -- 97
2020-03-13 23:00:00 7.9 0 Calma 5 Noroeste 0 -- -- 96
2020-03-13 22:00:00 9.3 0 Calma 6 Norte 0 -- -- 94
2020-03-13 21:00:00 9.6 2 Norte 5 Noroeste 0 -- -- 92
2020-03-13 20:00:00 9.8 2 Norte 10 Norte 0 -- -- 89
2020-03-13 19:00:00 10.5 4 Norte 9 Nordeste 0 -- -- 87
2020-03-13 18:00:00 11.2 3 Este 9 Sudeste 0 -- -- 82
2020-03-13 17:00:00 11 6 Nordeste 15 Nordeste 0 -- -- 84
2020-03-13 16:00:00 10.8 7 Nordeste 14 Nordeste 0 -- -- 85
2020-03-13 15:00:00 10.9 7 Nordeste 13 Este 0 -- -- 85
2020-03-13 14:00:00 10.4 8 Nordeste 19 Norte 0 -- -- 90
2020-03-13 13:00:00 10.9 9 Nordeste 17 Nordeste 0 -- -- 87
2020-03-13 12:00:00 10.4 8 Nordeste 20 Nordeste 0 -- -- 89
2020-03-13 11:00:00 9.7 9 Nordeste 21 Nordeste 0 -- -- 88
2020-03-13 10:00:00 8.8 6 Nordeste 23 Nordeste 0 -- -- 92
2020-03-13 09:00:00 8.1 6 Nordeste 23 Norte 0 -- -- 95
2020-03-13 08:00:00 7.7 8 Nordeste 24 Nordeste 0 -- -- 97
2020-03-13 07:00:00 7.6 9 Nordeste 15 Nordeste 0.2 -- -- 99
2020-03-13 06:00:00 7.7 9 Nordeste 19 Nordeste 0.4 -- -- 98
2020-03-13 05:00:00 7.6 11 Nordeste 18 Nordeste 0.2 -- -- 99
2020-03-13 04:00:00 7.6 9 Nordeste 15 Nordeste 0.4 -- -- 98
2020-03-13 03:00:00 7.6 5 Norte 9 Norte 0.2 -- -- 98
2020-03-13 02:00:00 7.7 4 Norte 12 Norte 0 -- -- 98
2020-03-13 01:00:00 7.7 8 Norte 16 Nordeste 0.2 -- -- 98
2020-03-13 00:00:00 7.8 9 Nordeste 16 Nordeste 0.2 -- -- 98
2020-03-12 23:00:00 7.9 5 Norte 12 Norte 0.2 -- -- 97
2020-03-12 22:00:00 8.1 8 Norte 15 Nordeste 0.6 -- -- 98
2020-03-12 21:00:00 8.3 6 Nordeste 14 Nordeste 0.2 -- -- 99
2020-03-12 20:00:00 8.6 10 Nordeste 19 Nordeste 0.4 -- -- 97
2020-03-12 19:00:00 9.1 8 Nordeste 14 Nordeste 0.4 -- -- 97
2020-03-12 18:00:00 9.6 10 Nordeste 20 Nordeste 1.4 -- -- 97
2020-03-12 17:00:00 10.5 10 Nordeste 20 Nordeste 0.4 -- -- 95
2020-03-12 16:00:00 10.8 6 Nordeste 12 Nordeste 0.4 -- -- 95
2020-03-12 15:00:00 11.7 5 Nordeste 19 Nordeste 0 -- -- 84
2020-03-12 14:00:00 12.4 9 Nordeste 19 Nordeste 0 -- -- 81
2020-03-12 13:00:00 11.9 3 Este 15 Nordeste 0 -- -- 90
2020-03-12 12:00:00 11.7 7 Nordeste 12 Nordeste 0 -- -- 93
2020-03-12 11:00:00 12.1 6 Nordeste 9 Nordeste 0 -- -- 90
2020-03-12 10:00:00 11.9 0 Calma 3 Este 0 -- -- 95
2020-03-12 09:00:00 11.3 0 Calma 2 Sur 0 -- -- 97
2020-03-12 08:00:00 11 0 Calma 3 Este 0 -- -- 97
2020-03-12 07:00:00 11.1 2 Oeste 3 Sudoeste 0 -- -- 97
2020-03-12 06:00:00 11.2 0 Calma 4 Nordeste 0 -- -- 97
2020-03-12 05:00:00 11.3 2 Sudeste 5 Sur 0 -- -- 96
2020-03-12 04:00:00 11.4 0 Calma 2 Nordeste 0 -- -- 96
2020-03-12 03:00:00 11.4 0 Calma 4 Nordeste -- -- -- 96
2020-03-12 02:00:00 11.5 3 Sur 4 Sur 0 -- -- 94
2020-03-12 01:00:00 11.7 2 Sudeste 4 Sudoeste 0 -- -- 93
2020-03-12 00:00:00 11.8 0 Calma 5 Oeste 0 -- -- 92
2020-03-11 23:00:00 11.8 0 Calma 3 Sur 0 -- -- 90
2020-03-11 22:00:00 11.9 2 Sudeste 6 Sudeste 0 -- -- 90
2020-03-11 21:00:00 12.2 4 Sur 12 Nordeste 0 -- -- 88
2020-03-11 20:00:00 12.4 8 Nordeste 12 Nordeste 0 -- -- 87
2020-03-11 19:00:00 13.1 6 Nordeste 18 Nordeste 0 -- -- 85
2020-03-11 18:00:00 15 11 Nordeste 20 Nordeste 0 -- -- 78
2020-03-11 17:00:00 16.9 11 Nordeste 25 Nordeste 0 -- -- 75
2020-03-11 16:00:00 19 14 Nordeste 21 Nordeste 0 -- -- 70
2020-03-11 15:00:00 19.3 11 Nordeste 18 Nordeste 0 -- -- 68
2020-03-11 14:00:00 19.1 9 Nordeste 17 Nordeste 0 -- -- 68
2020-03-11 13:00:00 18.6 7 Nordeste 14 Nordeste 0 -- -- 68
2020-03-11 12:00:00 16.8 6 Sur 9 Sur 0 -- -- 71
2020-03-11 11:00:00 14 2 Sudeste 5 Este 0 -- -- 79
2020-03-11 10:00:00 10.8 3 Sur 5 Sudoeste 0 -- -- 90
2020-03-11 09:00:00 7.1 0 Calma 2 Sur 0 -- -- 100
2020-03-11 08:00:00 6.1 0 Calma 2 Nordeste 0 -- -- 99
2020-03-11 07:00:00 6 0 Calma 2 Norte 0 -- -- 99
2020-03-11 06:00:00 6.4 0 Calma 3 Nordeste 0 -- -- 98
2020-03-11 05:00:00 6.5 0 Calma 4 Nordeste 0 -- -- 97
2020-03-11 04:00:00 6.6 0 Calma 5 Nordeste 0 -- -- 97
2020-03-11 03:00:00 7.2 0 Calma 3 Nordeste 0 -- -- 97
2020-03-11 02:00:00 7.5 0 Calma 3 Sudoeste 0 -- -- 96
2020-03-11 01:00:00 7.8 0 Calma 4 Nordeste 0 -- -- 95
2020-03-11 00:00:00 8.1 2 Oeste 6 Noroeste 0 -- -- 94
2020-03-10 23:00:00 8.7 0 Calma 5 Oeste 0 -- -- 91
2020-03-10 22:00:00 9.4 0 Calma 4 Oeste 0 -- -- 88
2020-03-10 21:00:00 10.3 0 Calma 3 Norte 0 -- -- 84
2020-03-10 20:00:00 11.7 0 Calma 8 Este 0 -- -- 77
2020-03-10 19:00:00 13.2 6 Nordeste 16 Nordeste 0 -- -- 74
2020-03-10 18:00:00 15.6 14 Norte 20 Nordeste 0 -- -- 66
2020-03-10 17:00:00 18.2 8 Nordeste 17 Norte 0 -- -- 67
2020-03-10 16:00:00 18.8 9 Nordeste 14 Nordeste 0 -- -- 65
2020-03-10 15:00:00 18.6 6 Nordeste 13 Este 0 -- -- 64
2020-03-10 14:00:00 17.2 5 Este 14 Sur 0 -- -- 66
2020-03-10 13:00:00 16.3 5 Este 16 Este 0 -- -- 70
2020-03-10 12:00:00 14.9 7 Este 12 Nordeste 0 -- -- 72
2020-03-10 11:00:00 12.8 4 Este 8 Este 0 -- -- 81
2020-03-10 10:00:00 8.4 0 Calma 6 Oeste 0 -- -- 95
2020-03-10 09:00:00 5.8 3 Oeste 5 Oeste 0 -- -- 96
2020-03-10 08:00:00 4.9 0 Calma 4 Norte 0 -- -- 96
2020-03-10 07:00:00 5.2 0 Calma 3 Oeste 0 -- -- 96
2020-03-10 06:00:00 5.5 0 Calma 3 Nordeste 0 -- -- 96
2020-03-10 05:00:00 5.6 0 Calma 3 Nordeste 0 -- -- 97
2020-03-10 04:00:00 5.9 0 Calma 4 Nordeste 0 -- -- 96
2020-03-10 03:00:00 6.3 0 Calma 2 Este 0 -- -- 96
2020-03-10 02:00:00 6.4 0 Calma 4 Nordeste 0 -- -- 96
2020-03-10 01:00:00 6.9 0 Calma 4 Sudoeste 0 -- -- 94
2020-03-10 00:00:00 7.4 0 Calma 3 Oeste 0 -- -- 94
2020-03-09 23:00:00 8.1 2 Noroeste 6 Oeste 0 -- -- 92
2020-03-09 22:00:00 8.7 0 Calma 3 Oeste 0 -- -- 89
2020-03-09 21:00:00 9.6 0 Calma 5 Este 0 -- -- 85
2020-03-09 20:00:00 10.2 3 Sudeste 13 Norte 0 -- -- 82
2020-03-09 19:00:00 11.9 8 Norte 11 Norte 0 -- -- 76
2020-03-09 18:00:00 14 7 Nordeste 21 Nordeste 0 -- -- 71
2020-03-09 17:00:00 15.7 12 Nordeste 21 Nordeste 0 -- -- 61
2020-03-09 16:00:00 16.1 4 Oeste 16 Oeste 0 -- -- 47
2020-03-09 15:00:00 15.7 10 Oeste 23 Oeste 0 -- -- 54
2020-03-09 14:00:00 15.1 9 Oeste 24 Oeste 0 -- -- 58
2020-03-09 13:00:00 14.2 10 Oeste 24 Noroeste 0 -- -- 58
2020-03-09 12:00:00 12.6 8 Oeste 19 Oeste 0 -- -- 61
2020-03-09 11:00:00 11.8 8 Oeste 25 Oeste 0 -- -- 64
2020-03-09 10:00:00 10.8 8 Oeste 16 Oeste 0 -- -- 68
2020-03-09 09:00:00 7.5 2 Sur 19 Oeste 0 -- -- 85
2020-03-09 08:00:00 6.9 9 Sudoeste 17 Oeste 0 -- -- 82
2020-03-09 07:00:00 7.2 0 Calma 10 Noroeste 0 -- -- 79
2020-03-09 06:00:00 7.8 7 Noroeste 12 Oeste 0 -- -- 79
2020-03-09 05:00:00 7.7 6 Oeste 15 Oeste 0 -- -- 77
2020-03-09 04:00:00 8.3 6 Oeste 14 Oeste 0 -- -- 78
2020-03-09 03:00:00 8 3 Nordeste 5 Norte 0 -- -- 82
2020-03-09 02:00:00 9.5 2 Sudoeste 13 Oeste 0 -- -- 78
2020-03-09 01:00:00 10.2 8 Oeste 26 Oeste 0 -- -- 73
2020-03-09 00:00:00 10.9 6 Sudoeste 28 Oeste 0 -- -- 68
2020-03-08 23:00:00 11.5 8 Noroeste 24 Oeste 0 -- -- 66
2020-03-08 22:00:00 12.1 10 Oeste 25 Sudoeste 0 -- -- 59
2020-03-08 21:00:00 11.9 5 Sudoeste 33 Oeste 0 -- -- 58
2020-03-08 20:00:00 11.5 7 Oeste 20 Sudoeste 0 -- -- 72
2020-03-08 19:00:00 12.3 13 Oeste 36 Oeste 0 -- -- 72
2020-03-08 18:00:00 13.1 10 Oeste 28 Oeste 0 -- -- 74
2020-03-08 17:00:00 15.9 10 Noroeste 43 Noroeste 0 -- -- 62
2020-03-08 16:00:00 17.2 22 Oeste 45 Oeste 0 -- -- 55
2020-03-08 15:00:00 16.9 15 Oeste 41 Sudoeste 0 -- -- 58
2020-03-08 14:00:00 17.1 16 Sudoeste 48 Sudoeste 0 -- -- 58
2020-03-08 13:00:00 17.6 23 Sudoeste 54 Sudoeste 0 -- -- 58
2020-03-08 12:00:00 16 24 Sudoeste 42 Sudoeste 0 -- -- 64
2020-03-08 11:00:00 13.7 14 Sudoeste 27 Sudoeste 0 -- -- 71
2020-03-08 10:00:00 12.4 12 Sudoeste 29 Sudoeste 0 -- -- 73
2020-03-08 09:00:00 12.1 7 Sudoeste 30 Sudoeste 0 -- -- 70
2020-03-08 08:00:00 11.6 10 Oeste 26 Oeste 0 -- -- 69
2020-03-08 07:00:00 10.7 9 Sudoeste 33 Sudoeste 0 -- -- 68
2020-03-08 06:00:00 7.9 3 Nordeste 10 Este 0 -- -- 79
2020-03-08 05:00:00 6.8 3 Noroeste 8 Oeste 0 -- -- 89
2020-03-08 04:00:00 5.3 3 Nordeste 9 Sudoeste 0 -- -- 97
2020-03-08 03:00:00 4.3 3 Sudoeste 7 Nordeste 0 -- -- 97
2020-03-08 02:00:00 4 2 Este 4 Nordeste 0 -- -- 95
2020-03-08 01:00:00 4.5 2 Sudeste 5 Oeste 0 -- -- 94
2020-03-08 00:00:00 5 0 Calma 7 Oeste 0 -- -- 92
2020-03-07 23:00:00 5.4 0 Calma 4 Nordeste 0 -- -- 93
2020-03-07 22:00:00 6.3 0 Calma 4 Sur 0 -- -- 90
2020-03-07 21:00:00 7.1 0 Calma 4 Norte 0 -- -- 86
2020-03-07 20:00:00 8.8 3 Norte 9 Norte 0 -- -- 80
2020-03-07 19:00:00 10.4 6 Norte 13 Norte 0 -- -- 74
2020-03-07 18:00:00 12.7 9 Norte 20 Este 0 -- -- 67
2020-03-07 17:00:00 14.5 12 Nordeste 22 Este 0 -- -- 65
2020-03-07 16:00:00 15.9 9 Norte 15 Nordeste 0 -- -- 64
2020-03-07 15:00:00 15.3 5 Norte 19 Oeste 0 -- -- 53
2020-03-07 14:00:00 13.7 6 Noroeste 15 Sur 0 -- -- 59
2020-03-07 13:00:00 13.3 11 Sudoeste 23 Sudoeste 0 -- -- 60
2020-03-07 12:00:00 12.8 12 Sudoeste 22 Sur 0 -- -- 65
2020-03-07 11:00:00 11.7 15 Sudoeste 26 Oeste 0 -- -- 69
2020-03-07 10:00:00 10 16 Oeste 24 Sudoeste 0 -- -- 72
2020-03-07 09:00:00 8.8 10 Sudoeste 23 Oeste 0 -- -- 89
2020-03-07 08:00:00 7.5 6 Sudoeste 14 Oeste 0.2 -- -- 95
2020-03-07 07:00:00 8.1 3 Sudoeste 8 Oeste 0 -- -- 97
2020-03-07 06:00:00 7.9 2 Noroeste 9 Sudoeste 0 -- -- 98
2020-03-07 05:00:00 7.4 0 Calma 10 Sur 0.2 -- -- 98
2020-03-07 04:00:00 7.3 2 Noroeste 5 Nordeste 0.4 -- -- 98
2020-03-07 03:00:00 7.2 2 Oeste 8 Sudeste 0.2 -- -- 97
2020-03-07 02:00:00 7.2 6 Sur 13 Sudoeste 0.4 -- -- 96
2020-03-07 01:00:00 7.4 6 Sudoeste 26 Sudoeste 0.2 -- -- 92
2020-03-07 00:00:00 7.3 6 Sudoeste 23 Sudoeste 0 -- -- 92
2020-03-06 23:00:00 7.3 17 Sudoeste 28 Oeste 0.2 -- -- 87
2020-03-06 22:00:00 7.2 8 Sudoeste 21 Oeste 0 -- -- 90
2020-03-06 21:00:00 8.4 5 Sudoeste 18 Sudoeste 0 -- -- 76
2020-03-06 20:00:00 8.7 10 Sudoeste 23 Oeste 0 -- -- 73
2020-03-06 19:00:00 8.9 9 Sudoeste 22 Sudoeste 0 -- -- 72
2020-03-06 18:00:00 9.3 11 Sudoeste 34 Oeste 0 -- -- 68
2020-03-06 17:00:00 9.3 8 Oeste 39 Oeste 0.2 -- -- 74
2020-03-06 16:00:00 11.3 15 Oeste 41 Sudoeste 0 -- -- 58
2020-03-06 15:00:00 9.6 18 Oeste 40 Oeste 0.2 -- -- 70
2020-03-06 14:00:00 9.3 8 Oeste 37 Oeste 0 -- -- 69
2020-03-06 13:00:00 8.9 11 Sudoeste 32 Sudoeste -- -- -- 79
2020-03-06 12:00:00 -- -- -- -- -- -- -- -- --
2020-03-06 11:00:00 -- -- -- -- -- -- -- -- --
2020-03-06 10:00:00 -- -- -- -- -- -- -- -- --
2020-03-06 09:00:00 -- -- -- -- -- -- -- -- --
2020-03-06 08:00:00 -- -- -- -- -- -- -- -- --
2020-03-06 07:00:00 -- -- -- -- -- -- -- -- --
2020-03-06 06:00:00 -- -- -- -- -- -- -- -- --
2020-03-06 05:00:00 -- -- -- -- -- -- -- -- --
2020-03-06 04:00:00 -- -- -- -- -- -- -- -- --
2020-03-06 03:00:00 -- -- -- -- -- -- -- -- --
2020-03-06 02:00:00 -- -- -- -- -- -- -- -- --
2020-03-06 01:00:00 -- -- -- -- -- -- -- -- --
2020-03-06 00:00:00 -- -- -- -- -- -- -- -- --
2020-03-05 23:00:00 -- -- -- -- -- -- -- -- --
2020-03-05 22:00:00 -- -- -- -- -- -- -- -- --
2020-03-05 21:00:00 -- -- -- -- -- -- -- -- --
2020-03-05 20:00:00 -- -- -- -- -- -- -- -- --
2020-03-05 19:00:00 -- -- -- -- -- -- -- -- --
2020-03-05 18:00:00 -- -- -- -- -- -- -- -- --
2020-03-05 17:00:00 -- -- -- -- -- -- -- -- --
2020-03-05 16:00:00 11.8 12 Sudoeste 30 Sudoeste 0 -- -- 70
2020-03-05 15:00:00 10.8 11 Oeste 33 Sudoeste 0.2 -- -- 80
2020-03-05 14:00:00 10.4 14 Oeste 41 Oeste 0.6 -- -- 82
2020-03-05 13:00:00 11.2 14 Oeste 36 Oeste 1.8 -- -- 82
2020-03-05 12:00:00 10.6 23 Oeste 52 Noroeste 2.2 -- -- 82
2020-03-05 11:00:00 12.4 24 Oeste 57 Oeste 0 -- -- 66
2020-03-05 10:00:00 12.4 23 Oeste 41 Oeste 0 -- -- 63
2020-03-05 09:00:00 10.8 19 Oeste 37 Oeste 0 -- -- 68
2020-03-05 08:00:00 10 12 Oeste 35 Oeste 0.4 -- -- 83
2020-03-05 07:00:00 10.5 12 Oeste 37 Oeste 2 -- -- 82
2020-03-05 06:00:00 11.7 22 Oeste 44 Oeste 4.4 -- -- 84
2020-03-05 05:00:00 15.3 13 Oeste 50 Sudoeste 0.4 -- -- 75
2020-03-05 04:00:00 16.8 22 Sudoeste 44 Oeste 0 -- -- 63
2020-03-05 03:00:00 17.1 17 Sudoeste 42 Sur 0 -- -- 61
2020-03-05 02:00:00 17.7 14 Sudoeste 47 Sur 0 -- -- 57
2020-03-05 01:00:00 17.5 17 Sudoeste 40 Sur 0 -- -- 60
2020-03-05 00:00:00 17.1 9 Oeste 35 Oeste 0 -- -- 67
2020-03-04 23:00:00 17 14 Sudoeste 38 Oeste 0 -- -- 66
2020-03-04 22:00:00 17.2 19 Sudoeste 39 Sudoeste 0 -- -- 64
2020-03-04 21:00:00 17.3 16 Sudoeste 38 Oeste 0 -- -- 64
2020-03-04 20:00:00 17.2 14 Sudoeste 41 Oeste 0 -- -- 62
2020-03-04 19:00:00 17.4 18 Sudoeste 33 Sudoeste 0 -- -- 57
2020-03-04 18:00:00 17.9 17 Sudoeste 40 Oeste 0 -- -- 55
2020-03-04 17:00:00 18.8 18 Sudoeste 44 Sudoeste 0 -- -- 53
2020-03-04 16:00:00 18.9 23 Sudoeste 57 Sur 0 -- -- 56
2020-03-04 15:00:00 19.5 13 Sudoeste 48 Sur 0 -- -- 57
2020-03-04 14:00:00 18.7 17 Sudoeste 43 Sur 0 -- -- 61
2020-03-04 13:00:00 18.4 16 Sudoeste 45 Sur 0 -- -- 59
2020-03-04 12:00:00 17.1 26 Sudoeste 49 Sudoeste 0 -- -- 62
2020-03-04 11:00:00 16.6 12 Sudoeste 33 Oeste 0 -- -- 67
2020-03-04 10:00:00 15.8 18 Sudoeste 35 Sudoeste 0 -- -- 69
2020-03-04 09:00:00 15 19 Oeste 39 Oeste 0 -- -- 69
2020-03-04 08:00:00 13.9 9 Sudoeste 15 Sudoeste 0 -- -- 77
2020-03-04 07:00:00 14.3 6 Sudoeste 21 Sudoeste 0 -- -- 77
2020-03-04 06:00:00 14.5 4 Sur 20 Sudoeste 0 -- -- 76
2020-03-04 05:00:00 15.1 8 Noroeste 24 Sur 0 -- -- 72
2020-03-04 04:00:00 15 10 Sudoeste 31 Oeste 0 -- -- 77
2020-03-04 03:00:00 14.4 8 Sudoeste 23 Oeste 0 -- -- 85
2020-03-04 02:00:00 10.6 3 Sudoeste 8 Sudoeste 0.6 -- -- 99
2020-03-04 01:00:00 10.4 0 Calma 8 Nordeste 0.4 -- -- 98
2020-03-04 00:00:00 10.3 3 Oeste 8 Oeste 0.6 -- -- 97
2020-03-03 23:00:00 10.6 4 Oeste 7 Sudoeste 0.6 -- -- 95
2020-03-03 22:00:00 11.4 4 Sudoeste 13 Oeste 1.4 -- -- 90
2020-03-03 21:00:00 13.8 11 Oeste 20 Oeste 0 -- -- 64
2020-03-03 20:00:00 14.2 4 Sur 16 Oeste 0 -- -- 63
2020-03-03 19:00:00 13.7 8 Oeste 24 Oeste 0 -- -- 75
2020-03-03 18:00:00 14.4 13 Oeste 25 Oeste 0 -- -- 74
2020-03-03 17:00:00 15.3 9 Noroeste 25 Oeste 0 -- -- 71
2020-03-03 16:00:00 16.1 16 Oeste 33 Oeste 0 -- -- 68
2020-03-03 15:00:00 17.3 19 Oeste 48 Noroeste 0 -- -- 55
2020-03-03 14:00:00 18.6 18 Sudoeste 50 Oeste 0 -- -- 53
2020-03-03 13:00:00 18.1 26 Oeste 56 Oeste 0 -- -- 55
2020-03-03 12:00:00 19.1 24 Oeste 47 Oeste 0 -- -- 51
2020-03-03 11:00:00 18 26 Oeste 49 Oeste 0 -- -- 64
2020-03-03 10:00:00 16.2 22 Oeste 49 Oeste 0 -- -- 70
2020-03-03 09:00:00 14.1 20 Sudoeste 68 Sudoeste 0 -- -- 74
2020-03-03 08:00:00 12.4 18 Sudoeste 66 Oeste 0.2 -- -- 78
2020-03-03 07:00:00 12.4 25 Oeste 55 Oeste 0.2 -- -- 73
2020-03-03 06:00:00 10.2 16 Oeste 43 Oeste 1 -- -- 79
2020-03-03 05:00:00 8.9 13 Oeste 36 Oeste 2.2 -- -- 84
2020-03-03 04:00:00 8.9 18 Sudoeste 37 Oeste 0.6 -- -- 80
2020-03-03 03:00:00 8.7 18 Oeste 35 Oeste 0.2 -- -- 78
2020-03-03 02:00:00 9.1 12 Sudoeste 33 Sur 0 -- -- 73
2020-03-03 01:00:00 9.3 11 Sudoeste 27 Sudoeste 0 -- -- 68
2020-03-03 00:00:00 8.9 13 Sudoeste 28 Sudoeste 0 -- -- 70